sensor_id;sensor_type;location;lat;lon;timestamp;pressure;altitude;pressure_sealevel;temperature;humidity
71424;BME280;59240;51.370;-0.486;2023-04-21T00:02:22;101572.41;;;8.10;79.93
71424;BME280;59240;51.370;-0.486;2023-04-21T00:04:49;101564.59;;;8.07;82.70
71424;BME280;59240;51.370;-0.486;2023-04-21T00:07:17;101573.25;;;8.14;80.17
71424;BME280;59240;51.370;-0.486;2023-04-21T00:09:45;101537.81;;;7.96;80.21
71424;BME280;59240;51.370;-0.486;2023-04-21T00:12:12;101567.22;;;8.19;80.17
71424;BME280;59240;51.370;-0.486;2023-04-21T00:14:38;101575.88;;;8.25;80.93
71424;BME280;59240;51.370;-0.486;2023-04-21T00:17:05;101540.41;;;8.13;79.77
71424;BME280;59240;51.370;-0.486;2023-04-21T00:19:32;101588.03;;;8.38;79.68
71424;BME280;59240;51.370;-0.486;2023-04-21T00:22:00;101576.75;;;8.31;80.32
71424;BME280;59240;51.370;-0.486;2023-04-21T00:24:27;101567.22;;;8.32;79.76
71424;BME280;59240;51.370;-0.486;2023-04-21T00:26:53;101562.91;;;8.32;79.85
71424;BME280;59240;51.370;-0.486;2023-04-21T00:29:20;101579.34;;;8.43;80.17
71424;BME280;59240;51.370;-0.486;2023-04-21T00:31:47;101560.28;;;8.34;80.06
71424;BME280;59240;51.370;-0.486;2023-04-21T00:34:14;101549.94;;;8.31;80.01
71424;BME280;59240;51.370;-0.486;2023-04-21T00:36:40;101574.16;;;8.42;80.06
71424;BME280;59240;51.370;-0.486;2023-04-21T00:39:07;101573.31;;;8.46;80.77
71424;BME280;59240;51.370;-0.486;2023-04-21T00:41:35;101577.63;;;8.50;81.00
71424;BME280;59240;51.370;-0.486;2023-04-21T00:44:04;101580.25;;;8.52;80.42
71424;BME280;59240;51.370;-0.486;2023-04-21T00:46:32;101580.25;;;8.52;80.33
71424;BME280;59240;51.370;-0.486;2023-04-21T00:49:03;101570.72;;;8.54;81.29
71424;BME280;59240;51.370;-0.486;2023-04-21T00:51:31;101513.56;;;8.21;80.28
71424;BME280;59240;51.370;-0.486;2023-04-21T00:54:00;101570.69;;;8.55;79.94
71424;BME280;59240;51.370;-0.486;2023-04-21T00:56:30;101539.53;;;8.37;80.78
71424;BME280;59240;51.370;-0.486;2023-04-21T00:58:58;101555.09;;;8.50;81.95
71424;BME280;59240;51.370;-0.486;2023-04-21T01:01:25;101534.34;;;8.37;80.19
71424;BME280;59240;51.370;-0.486;2023-04-21T01:03:57;101530.91;;;8.41;81.53
71424;BME280;59240;51.370;-0.486;2023-04-21T01:06:27;101512.69;;;8.30;81.43
71424;BME280;59240;51.370;-0.486;2023-04-21T01:08:54;101548.19;;;8.54;79.87
71424;BME280;59240;51.370;-0.486;2023-04-21T01:11:21;101500.59;;;8.34;80.31
71424;BME280;59240;51.370;-0.486;2023-04-21T01:13:47;101552.50;;;8.61;80.42
71424;BME280;59240;51.370;-0.486;2023-04-21T01:16:17;101520.50;;;8.44;80.81
71424;BME280;59240;51.370;-0.486;2023-04-21T01:18:44;101548.19;;;8.62;79.51
71424;BME280;59240;51.370;-0.486;2023-04-21T01:21:11;101549.91;;;8.64;79.86
71424;BME280;59240;51.370;-0.486;2023-04-21T01:23:39;101540.41;;;8.65;81.28
71424;BME280;59240;51.370;-0.486;2023-04-21T01:26:06;101534.31;;;8.64;80.15
71424;BME280;59240;51.370;-0.486;2023-04-21T01:28:33;101525.69;;;8.61;80.25
71424;BME280;59240;51.370;-0.486;2023-04-21T01:31:00;101505.78;;;8.49;80.29
71424;BME280;59240;51.370;-0.486;2023-04-21T01:33:27;101506.66;;;8.51;80.57
71424;BME280;59240;51.370;-0.486;2023-04-21T01:35:54;101508.34;;;8.61;80.90
71424;BME280;59240;51.370;-0.486;2023-04-21T01:38:21;101506.63;;;8.63;80.33
71424;BME280;59240;51.370;-0.486;2023-04-21T01:40:50;101492.78;;;8.49;80.82
71424;BME280;59240;51.370;-0.486;2023-04-21T01:43:19;101507.50;;;8.67;80.32
71424;BME280;59240;51.370;-0.486;2023-04-21T01:45:47;101481.56;;;8.52;79.96
71424;BME280;59240;51.370;-0.486;2023-04-21T01:48:13;101510.94;;;8.67;79.86
71424;BME280;59240;51.370;-0.486;2023-04-21T01:50:40;101491.06;;;8.54;80.14
71424;BME280;59240;51.370;-0.486;2023-04-21T01:53:07;101502.28;;;8.67;80.10
71424;BME280;59240;51.370;-0.486;2023-04-21T01:55:34;101497.09;;;8.64;80.67
71424;BME280;59240;51.370;-0.486;2023-04-21T01:58:01;101497.09;;;8.65;80.30
71424;BME280;59240;51.370;-0.486;2023-04-21T02:00:27;101473.75;;;8.56;80.59
71424;BME280;59240;51.370;-0.486;2023-04-21T02:02:54;101475.47;;;8.57;79.42
71424;BME280;59240;51.370;-0.486;2023-04-21T02:05:23;101482.38;;;8.61;80.49
71424;BME280;59240;51.370;-0.486;2023-04-21T02:07:50;101463.38;;;8.53;80.62
71424;BME280;59240;51.370;-0.486;2023-04-21T02:10:17;101453.84;;;8.47;80.12
71424;BME280;59240;51.370;-0.486;2023-04-21T02:12:43;101458.16;;;8.55;79.46
71424;BME280;59240;51.370;-0.486;2023-04-21T02:15:10;101480.66;;;8.66;80.02
71424;BME280;59240;51.370;-0.486;2023-04-21T02:17:37;101474.59;;;8.66;79.59
71424;BME280;59240;51.370;-0.486;2023-04-21T02:20:05;101461.63;;;8.55;80.19
71424;BME280;59240;51.370;-0.486;2023-04-21T02:22:32;101459.91;;;8.54;79.97
71424;BME280;59240;51.370;-0.486;2023-04-21T02:24:59;101477.19;;;8.67;80.48
71424;BME280;59240;51.370;-0.486;2023-04-21T02:27:26;101464.22;;;8.61;79.88
71424;BME280;59240;51.370;-0.486;2023-04-21T02:29:52;101469.38;;;8.72;79.31
71424;BME280;59240;51.370;-0.486;2023-04-21T02:32:19;101448.63;;;8.63;79.51
71424;BME280;59240;51.370;-0.486;2023-04-21T02:34:51;101450.34;;;8.62;79.67
71424;BME280;59240;51.370;-0.486;2023-04-21T02:37:18;101458.97;;;8.69;80.14
71424;BME280;59240;51.370;-0.486;2023-04-21T02:39:45;101462.47;;;8.68;79.56
71424;BME280;59240;51.370;-0.486;2023-04-21T02:42:12;101451.19;;;8.64;79.67
71424;BME280;59240;51.370;-0.486;2023-04-21T02:44:39;101434.78;;;8.58;80.25
71424;BME280;59240;51.370;-0.486;2023-04-21T02:47:05;101428.75;;;8.51;80.95
71424;BME280;59240;51.370;-0.486;2023-04-21T02:49:32;101415.75;;;8.49;80.18
71424;BME280;59240;51.370;-0.486;2023-04-21T02:51:59;101406.25;;;8.47;80.06
71424;BME280;59240;51.370;-0.486;2023-04-21T02:54:25;101403.66;;;8.44;80.24
71424;BME280;59240;51.370;-0.486;2023-04-21T02:56:52;101423.53;;;8.60;79.58
71424;BME280;59240;51.370;-0.486;2023-04-21T02:59:18;101422.63;;;8.63;80.25
71424;BME280;59240;51.370;-0.486;2023-04-21T03:01:46;101392.44;;;8.45;80.30
71424;BME280;59240;51.370;-0.486;2023-04-21T03:04:14;101414.03;;;8.55;79.89
71424;BME280;59240;51.370;-0.486;2023-04-21T03:06:41;101406.25;;;8.53;79.61
71424;BME280;59240;51.370;-0.486;2023-04-21T03:09:08;101383.78;;;8.40;79.91
71424;BME280;59240;51.370;-0.486;2023-04-21T03:11:34;101411.44;;;8.53;80.42
71424;BME280;59240;51.370;-0.486;2023-04-21T03:14:01;101424.38;;;8.58;79.68
71424;BME280;59240;51.370;-0.486;2023-04-21T03:16:28;101420.09;;;8.49;80.03
71424;BME280;59240;51.370;-0.486;2023-04-21T03:18:54;101444.28;;;8.63;79.48
71424;BME280;59240;51.370;-0.486;2023-04-21T03:21:21;101419.19;;;8.58;79.62
71424;BME280;59240;51.370;-0.486;2023-04-21T03:23:48;101390.69;;;8.41;79.34
71424;BME280;59240;51.370;-0.486;2023-04-21T03:26:14;101374.25;;;8.30;79.94
71424;BME280;59240;51.370;-0.486;2023-04-21T03:28:41;101420.06;;;8.55;80.56
71424;BME280;59240;51.370;-0.486;2023-04-21T03:31:08;101412.31;;;8.52;80.15
71424;BME280;59240;51.370;-0.486;2023-04-21T03:33:35;101395.00;;;8.48;79.76
71424;BME280;59240;51.370;-0.486;2023-04-21T03:36:02;101394.13;;;8.49;80.02
71424;BME280;59240;51.370;-0.486;2023-04-21T03:38:28;101381.19;;;8.44;79.53
71424;BME280;59240;51.370;-0.486;2023-04-21T03:40:55;101404.50;;;8.58;80.46
71424;BME280;59240;51.370;-0.486;2023-04-21T03:43:22;101363.00;;;8.34;80.13
71424;BME280;59240;51.370;-0.486;2023-04-21T03:45:49;101394.13;;;8.54;79.32
71424;BME280;59240;51.370;-0.486;2023-04-21T03:48:15;101369.91;;;8.47;79.39
71424;BME280;59240;51.370;-0.486;2023-04-21T03:50:42;101366.47;;;8.39;80.38
71424;BME280;59240;51.370;-0.486;2023-04-21T03:53:08;101355.22;;;8.35;80.08
71424;BME280;59240;51.370;-0.486;2023-04-21T03:55:35;101349.16;;;8.29;80.04
71424;BME280;59240;51.370;-0.486;2023-04-21T03:58:02;101369.94;;;8.41;80.01
71424;BME280;59240;51.370;-0.486;2023-04-21T04:00:28;101369.94;;;8.41;79.84
71424;BME280;59240;51.370;-0.486;2023-04-21T04:02:55;101383.75;;;8.49;80.22
71424;BME280;59240;51.370;-0.486;2023-04-21T04:05:21;101347.44;;;8.28;80.13
71424;BME280;59240;51.370;-0.486;2023-04-21T04:07:48;101373.41;;;8.40;79.64
71424;BME280;59240;51.370;-0.486;2023-04-21T04:10:15;101363.03;;;8.31;81.40
71424;BME280;59240;51.370;-0.486;2023-04-21T04:12:42;101375.13;;;8.32;80.15
71424;BME280;59240;51.370;-0.486;2023-04-21T04:15:08;101349.19;;;8.22;80.52
71424;BME280;59240;51.370;-0.486;2023-04-21T04:17:35;101367.34;;;8.36;79.74
71424;BME280;59240;51.370;-0.486;2023-04-21T04:20:02;101345.69;;;8.28;80.50
71424;BME280;59240;51.370;-0.486;2023-04-21T04:22:30;101343.13;;;8.27;80.69
71424;BME280;59240;51.370;-0.486;2023-04-21T04:24:56;101307.72;;;8.10;79.69
71424;BME280;59240;51.370;-0.486;2023-04-21T04:27:26;101315.50;;;8.12;80.53
71424;BME280;59240;51.370;-0.486;2023-04-21T04:29:53;101307.72;;;8.10;80.58
71424;BME280;59240;51.370;-0.486;2023-04-21T04:32:19;101325.00;;;8.17;79.99
71424;BME280;59240;51.370;-0.486;2023-04-21T04:34:47;101338.78;;;8.29;79.90
71424;BME280;59240;51.370;-0.486;2023-04-21T04:37:13;101314.63;;;8.11;80.17
71424;BME280;59240;51.370;-0.486;2023-04-21T04:39:40;101317.19;;;8.16;79.73
71424;BME280;59240;51.370;-0.486;2023-04-21T04:42:07;101334.47;;;8.31;80.88
71424;BME280;59240;51.370;-0.486;2023-04-21T04:44:37;101297.34;;;8.10;80.10
71424;BME280;59240;51.370;-0.486;2023-04-21T04:47:03;101292.16;;;8.04;80.54
71424;BME280;59240;51.370;-0.486;2023-04-21T04:49:30;101300.78;;;8.12;79.67
71424;BME280;59240;51.370;-0.486;2023-04-21T04:51:57;101331.00;;;8.32;79.80
71424;BME280;59240;51.370;-0.486;2023-04-21T04:54:25;101314.59;;;8.20;80.63
71424;BME280;59240;51.370;-0.486;2023-04-21T04:56:51;101316.31;;;8.21;80.74
71424;BME280;59240;51.370;-0.486;2023-04-21T04:59:18;101300.78;;;8.09;79.63
71424;BME280;59240;51.370;-0.486;2023-04-21T05:01:44;101320.66;;;8.24;79.82
71424;BME280;59240;51.370;-0.486;2023-04-21T05:04:11;101285.25;;;8.03;80.86
71424;BME280;59240;51.370;-0.486;2023-04-21T05:06:43;101297.34;;;8.07;80.37
71424;BME280;59240;51.370;-0.486;2023-04-21T05:09:09;101312.84;;;8.16;80.71
71424;BME280;59240;51.370;-0.486;2023-04-21T05:11:36;101293.00;;;8.06;79.83
71424;BME280;59240;51.370;-0.486;2023-04-21T05:14:02;101310.25;;;8.21;80.15
71424;BME280;59240;51.370;-0.486;2023-04-21T05:16:29;101301.63;;;8.23;79.75
71424;BME280;59240;51.370;-0.486;2023-04-21T05:19:00;101288.66;;;8.17;80.07
71424;BME280;59240;51.370;-0.486;2023-04-21T05:21:27;101307.63;;;8.32;79.97
71424;BME280;59240;51.370;-0.486;2023-04-21T05:23:58;101292.09;;;8.26;79.61
71424;BME280;59240;51.370;-0.486;2023-04-21T05:26:25;101299.81;;;8.35;79.58
71424;BME280;59240;51.370;-0.486;2023-04-21T05:28:57;101307.59;;;8.35;79.87
71424;BME280;59240;51.370;-0.486;2023-04-21T05:31:24;101294.66;;;8.32;79.62
71424;BME280;59240;51.370;-0.486;2023-04-21T05:33:52;101276.47;;;8.29;80.02
71424;BME280;59240;51.370;-0.486;2023-04-21T05:36:18;101300.72;;;8.38;80.42
71424;BME280;59240;51.370;-0.486;2023-04-21T05:38:50;101282.53;;;8.34;80.32
71424;BME280;59240;51.370;-0.486;2023-04-21T05:41:17;101266.09;;;8.32;80.11
71424;BME280;59240;51.370;-0.486;2023-04-21T05:43:44;101235.00;;;8.16;80.96
71424;BME280;59240;51.370;-0.486;2023-04-21T05:46:10;101273.03;;;8.39;80.88
71424;BME280;59240;51.370;-0.486;2023-04-21T05:48:38;101260.03;;;8.34;80.83
71424;BME280;59240;51.370;-0.486;2023-04-21T05:51:12;101274.69;;;8.49;80.59
71424;BME280;59240;51.370;-0.486;2023-04-21T05:53:41;101268.63;;;8.53;79.83
71424;BME280;59240;51.370;-0.486;2023-04-21T05:56:10;101213.38;;;8.20;80.51
71424;BME280;59240;51.370;-0.486;2023-04-21T05:58:37;101228.88;;;8.34;79.78
71424;BME280;59240;51.370;-0.486;2023-04-21T06:01:04;101262.50;;;8.57;80.46
71424;BME280;59240;51.370;-0.486;2023-04-21T06:03:32;101263.38;;;8.61;79.73
71424;BME280;59240;51.370;-0.486;2023-04-21T06:06:00;101238.31;;;8.49;79.72
71424;BME280;59240;51.370;-0.486;2023-04-21T06:08:28;101248.66;;;8.61;80.07
71424;BME280;59240;51.370;-0.486;2023-04-21T06:10:55;101234.84;;;8.50;80.52
71424;BME280;59240;51.370;-0.486;2023-04-21T06:13:21;101174.44;;;8.22;79.91
71424;BME280;59240;51.370;-0.486;2023-04-21T06:15:48;101247.72;;;8.73;80.23
71424;BME280;59240;51.370;-0.486;2023-04-21T06:18:14;101203.72;;;8.44;80.24
71424;BME280;59240;51.370;-0.486;2023-04-21T06:20:49;101223.50;;;8.68;79.99
71424;BME280;59240;51.370;-0.486;2023-04-21T06:23:16;101243.38;;;8.73;81.38
71424;BME280;59240;51.370;-0.486;2023-04-21T06:25:43;101188.16;;;8.44;82.56
71424;BME280;59240;51.370;-0.486;2023-04-21T06:28:10;101206.22;;;8.62;80.34
71424;BME280;59240;51.370;-0.486;2023-04-21T06:30:37;101186.34;;;8.55;80.30
71424;BME280;59240;51.370;-0.486;2023-04-21T06:33:04;101176.84;;;8.56;79.77
71424;BME280;59240;51.370;-0.486;2023-04-21T06:35:32;101200.16;;;8.66;81.08
71424;BME280;59240;51.370;-0.486;2023-04-21T06:38:03;101140.63;;;8.37;79.72
71424;BME280;59240;51.370;-0.486;2023-04-21T06:40:30;101196.59;;;8.75;80.45
71424;BME280;59240;51.370;-0.486;2023-04-21T06:42:58;101156.03;;;8.57;80.53
71424;BME280;59240;51.370;-0.486;2023-04-21T06:45:25;101180.13;;;8.76;79.50
71424;BME280;59240;51.370;-0.486;2023-04-21T06:47:51;101144.81;;;8.55;80.67
71424;BME280;59240;51.370;-0.486;2023-04-21T06:50:18;101161.16;;;8.69;80.76
71424;BME280;59240;51.370;-0.486;2023-04-21T06:52:45;101174.03;;;8.82;80.49
71424;BME280;59240;51.370;-0.486;2023-04-21T06:55:12;101207.63;;;9.06;80.01
71424;BME280;59240;51.370;-0.486;2023-04-21T06:57:38;101147.22;;;8.78;80.16
71424;BME280;59240;51.370;-0.486;2023-04-21T07:00:06;101160.97;;;8.92;80.83
71424;BME280;59240;51.370;-0.486;2023-04-21T07:02:32;101179.03;;;9.06;79.97
71424;BME280;59240;51.370;-0.486;2023-04-21T07:04:59;101167.75;;;9.05;80.03
71424;BME280;59240;51.370;-0.486;2023-04-21T07:07:27;101156.50;;;9.05;80.29
71424;BME280;59240;51.370;-0.486;2023-04-21T07:09:56;101140.13;;;8.95;80.70
71424;BME280;59240;51.370;-0.486;2023-04-21T07:12:23;101154.66;;;9.16;79.17
71424;BME280;59240;51.370;-0.486;2023-04-21T07:14:50;101148.47;;;9.28;79.61
71424;BME280;59240;51.370;-0.486;2023-04-21T07:17:16;101135.47;;;9.29;80.01
71424;BME280;59240;51.370;-0.486;2023-04-21T07:19:43;101178.34;;;9.67;79.36
71424;BME280;59240;51.370;-0.486;2023-04-21T07:22:10;101175.72;;;9.70;78.94
71424;BME280;59240;51.370;-0.486;2023-04-21T07:24:36;101137.78;;;9.52;78.88
71424;BME280;59240;51.370;-0.486;2023-04-21T07:27:03;101162.56;;;9.82;79.04
71424;BME280;59240;51.370;-0.486;2023-04-21T07:29:30;101145.31;;;9.75;79.01
71424;BME280;59240;51.370;-0.486;2023-04-21T07:31:57;101175.28;;;10.05;78.44
71424;BME280;59240;51.370;-0.486;2023-04-21T07:34:24;101157.19;;;9.95;78.18
71424;BME280;59240;51.370;-0.486;2023-04-21T07:36:51;101170.91;;;10.07;78.07
71424;BME280;59240;51.370;-0.486;2023-04-21T07:39:18;101133.00;;;9.86;77.96
71424;BME280;59240;51.370;-0.486;2023-04-21T07:41:45;101127.88;;;9.80;77.57
71424;BME280;59240;51.370;-0.486;2023-04-21T07:44:12;101142.47;;;9.95;77.56
71424;BME280;59240;51.370;-0.486;2023-04-21T07:46:39;101157.00;;;10.10;77.02
71424;BME280;59240;51.370;-0.486;2023-04-21T07:49:08;101112.28;;;9.80;76.67
71424;BME280;59240;51.370;-0.486;2023-04-21T07:51:35;101096.88;;;9.65;76.08
71424;BME280;59240;51.370;-0.486;2023-04-21T07:54:02;101133.06;;;9.83;77.14
71424;BME280;59240;51.370;-0.486;2023-04-21T07:56:29;101117.66;;;9.67;76.81
71424;BME280;59240;51.370;-0.486;2023-04-21T07:58:56;101114.28;;;9.60;76.16
71424;BME280;59240;51.370;-0.486;2023-04-21T08:01:23;101123.84;;;9.58;77.45
71424;BME280;59240;51.370;-0.486;2023-04-21T08:03:50;101105.78;;;9.47;77.43
71424;BME280;59240;51.370;-0.486;2023-04-21T08:06:17;101120.47;;;9.51;76.58
71424;BME280;59240;51.370;-0.486;2023-04-21T08:08:44;101122.25;;;9.46;76.20
71424;BME280;59240;51.370;-0.486;2023-04-21T08:11:11;101117.19;;;9.36;76.47
71424;BME280;59240;51.370;-0.486;2023-04-21T08:13:38;101142.19;;;9.49;75.49
71424;BME280;59240;51.370;-0.486;2023-04-21T08:16:05;101124.16;;;9.32;76.27
71424;BME280;59240;51.370;-0.486;2023-04-21T08:18:32;101140.53;;;9.39;75.82
71424;BME280;59240;51.370;-0.486;2023-04-21T08:20:58;101102.72;;;9.13;76.10
71424;BME280;59240;51.370;-0.486;2023-04-21T08:23:25;101125.94;;;9.28;76.93
71424;BME280;59240;51.370;-0.486;2023-04-21T08:25:52;101112.16;;;9.19;75.80
71424;BME280;59240;51.370;-0.486;2023-04-21T08:28:19;101136.25;;;9.33;75.95
71424;BME280;59240;51.370;-0.486;2023-04-21T08:30:45;101077.75;;;8.97;76.30
71424;BME280;59240;51.370;-0.486;2023-04-21T08:33:12;101104.44;;;9.11;75.14
71424;BME280;59240;51.370;-0.486;2023-04-21T08:35:39;101125.09;;;9.26;75.32
71424;BME280;59240;51.370;-0.486;2023-04-21T08:38:26;101100.16;;;9.09;75.64
71424;BME280;59240;51.370;-0.486;2023-04-21T08:40:54;101114.78;;;9.20;75.00
71424;BME280;59240;51.370;-0.486;2023-04-21T08:43:21;101093.22;;;9.09;75.86
71424;BME280;59240;51.370;-0.486;2023-04-21T08:45:48;101113.88;;;9.23;75.57
71424;BME280;59240;51.370;-0.486;2023-04-21T08:48:15;101094.06;;;9.11;74.98
71424;BME280;59240;51.370;-0.486;2023-04-21T08:50:45;101075.13;;;9.01;75.31
71424;BME280;59240;51.370;-0.486;2023-04-21T08:53:13;101102.63;;;9.19;75.64
71424;BME280;59240;51.370;-0.486;2023-04-21T08:55:40;101106.09;;;9.21;76.04
71424;BME280;59240;51.370;-0.486;2023-04-21T08:58:07;101099.25;;;9.14;75.18
71424;BME280;59240;51.370;-0.486;2023-04-21T09:00:38;101111.31;;;9.18;75.36
71424;BME280;59240;51.370;-0.486;2023-04-21T09:03:07;101085.53;;;9.00;74.98
71424;BME280;59240;51.370;-0.486;2023-04-21T09:05:59;101123.41;;;9.22;75.42
71424;BME280;59240;51.370;-0.486;2023-04-21T09:08:27;101105.34;;;9.10;75.57
71424;BME280;59240;51.370;-0.486;2023-04-21T09:10:56;101112.22;;;9.14;75.05
71424;BME280;59240;51.370;-0.486;2023-04-21T09:13:34;101107.91;;;9.12;75.11
71424;BME280;59240;51.370;-0.486;2023-04-21T09:16:03;101108.78;;;9.11;75.21
71424;BME280;59240;51.370;-0.486;2023-04-21T09:18:36;101126.03;;;9.19;75.63
71424;BME280;59240;51.370;-0.486;2023-04-21T09:21:13;101121.75;;;9.15;75.61
71424;BME280;59240;51.370;-0.486;2023-04-21T09:23:46;101122.59;;;9.17;76.22
71424;BME280;59240;51.370;-0.486;2023-04-21T09:26:18;101079.59;;;8.87;76.02
71424;BME280;59240;51.370;-0.486;2023-04-21T09:28:47;101043.47;;;8.63;75.69
71424;BME280;59240;51.370;-0.486;2023-04-21T09:31:16;101073.59;;;8.81;75.94
71424;BME280;59240;51.370;-0.486;2023-04-21T09:33:56;101048.59;;;8.72;76.21
71424;BME280;59240;51.370;-0.486;2023-04-21T09:36:28;101096.00;;;8.94;76.07
71424;BME280;59240;51.370;-0.486;2023-04-21T09:39:00;101103.78;;;8.94;76.15
71424;BME280;59240;51.370;-0.486;2023-04-21T09:41:48;101106.34;;;8.95;77.26
71424;BME280;59240;51.370;-0.486;2023-04-21T09:44:14;101096.06;;;8.88;75.91
71424;BME280;59240;51.370;-0.486;2023-04-21T09:46:47;101087.53;;;8.73;77.05
71424;BME280;59240;51.370;-0.486;2023-04-21T09:49:16;101103.06;;;8.80;77.14
71424;BME280;59240;51.370;-0.486;2023-04-21T09:51:44;101084.16;;;8.65;78.29
71424;BME280;59240;51.370;-0.486;2023-04-21T09:54:18;101108.25;;;8.78;81.51
71424;BME280;59240;51.370;-0.486;2023-04-21T09:57:02;101087.66;;;8.60;82.93
71424;BME280;59240;51.370;-0.486;2023-04-21T09:59:37;101118.66;;;8.80;85.45
71424;BME280;59240;51.370;-0.486;2023-04-21T10:02:07;101122.97;;;8.81;82.86
71424;BME280;59240;51.370;-0.486;2023-04-21T10:04:35;101097.97;;;8.64;82.94
71424;BME280;59240;51.370;-0.486;2023-04-21T10:07:04;101104.94;;;8.61;84.30
71424;BME280;59240;51.370;-0.486;2023-04-21T10:09:48;101075.63;;;8.51;90.76
71424;BME280;59240;51.370;-0.486;2023-04-21T10:12:24;101061.81;;;8.43;88.87
71424;BME280;59240;51.370;-0.486;2023-04-21T10:15:03;101074.84;;;8.40;87.79
71424;BME280;59240;51.370;-0.486;2023-04-21T10:17:39;101056.78;;;8.25;86.05
71424;BME280;59240;51.370;-0.486;2023-04-21T10:20:09;101084.38;;;8.35;90.10
71424;BME280;59240;51.370;-0.486;2023-04-21T10:22:56;101064.53;;;8.28;96.51
71424;BME280;59240;51.370;-0.486;2023-04-21T10:25:28;101099.03;;;8.46;93.10
71424;BME280;59240;51.370;-0.486;2023-04-21T10:27:57;101111.94;;;8.54;91.30
71424;BME280;59240;51.370;-0.486;2023-04-21T10:30:26;101119.69;;;8.57;89.66
71424;BME280;59240;51.370;-0.486;2023-04-21T10:33:11;101120.50;;;8.62;93.88
71424;BME280;59240;51.370;-0.486;2023-04-21T10:36:01;101117.97;;;8.59;99.30
71424;BME280;59240;51.370;-0.486;2023-04-21T10:39:03;101113.59;;;8.61;100.00
71424;BME280;59240;51.370;-0.486;2023-04-21T10:41:31;101092.13;;;8.41;92.35
71424;BME280;59240;51.370;-0.486;2023-04-21T10:44:15;101053.34;;;8.16;100.00
71424;BME280;59240;51.370;-0.486;2023-04-21T10:46:45;101068.88;;;8.22;94.56
71424;BME280;59240;51.370;-0.486;2023-04-21T10:49:26;101098.16;;;8.46;100.00
71424;BME280;59240;51.370;-0.486;2023-04-21T10:57:34;101084.34;;;8.41;100.00
71424;BME280;59240;51.370;-0.486;2023-04-21T11:00:08;101087.72;;;8.49;100.00
71424;BME280;59240;51.370;-0.486;2023-04-21T11:02:58;101104.97;;;8.56;100.00
71424;BME280;59240;51.370;-0.486;2023-04-21T11:05:47;101072.25;;;8.34;100.00
71424;BME280;59240;51.370;-0.486;2023-04-21T11:08:19;101090.41;;;8.41;100.00
71424;BME280;59240;51.370;-0.486;2023-04-21T11:11:03;101080.03;;;8.34;100.00
71424;BME280;59240;51.370;-0.486;2023-04-21T11:14:02;101074.91;;;8.31;100.00
71424;BME280;59240;51.370;-0.486;2023-04-21T11:16:54;101072.25;;;8.38;100.00
71424;BME280;59240;51.370;-0.486;2023-04-21T11:19:38;101096.41;;;8.48;100.00
71424;BME280;59240;51.370;-0.486;2023-04-21T11:22:25;101090.41;;;8.41;100.00
71424;BME280;59240;51.370;-0.486;2023-04-21T11:24:55;101096.44;;;8.42;100.00
71424;BME280;59240;51.370;-0.486;2023-04-21T11:27:56;101093.00;;;8.40;100.00
71424;BME280;59240;51.370;-0.486;2023-04-21T11:35:01;101080.88;;;8.45;100.00
71424;BME280;59240;51.370;-0.486;2023-04-21T11:37:49;101084.31;;;8.47;100.00
71424;BME280;59240;51.370;-0.486;2023-04-21T11:40:55;101062.75;;;8.36;100.00
71424;BME280;59240;51.370;-0.486;2023-04-21T11:43:29;101076.50;;;8.47;100.00
71424;BME280;59240;51.370;-0.486;2023-04-21T11:46:17;101076.44;;;8.55;100.00
71424;BME280;59240;51.370;-0.486;2023-04-21T11:49:00;101066.00;;;8.58;100.00
71424;BME280;59240;51.370;-0.486;2023-04-21T11:51:44;101072.84;;;8.68;100.00
71424;BME280;59240;51.370;-0.486;2023-04-21T11:54:17;101059.91;;;8.66;100.00
71424;BME280;59240;51.370;-0.486;2023-04-21T11:57:09;101054.66;;;8.72;100.00
71424;BME280;59240;51.370;-0.486;2023-04-21T12:00:00;101092.41;;;9.04;100.00
71424;BME280;59240;51.370;-0.486;2023-04-21T12:02:41;101057.91;;;8.90;100.00
71424;BME280;59240;51.370;-0.486;2023-04-21T12:05:12;101090.44;;;9.24;100.00
71424;BME280;59240;51.370;-0.486;2023-04-21T12:07:45;101040.28;;;9.16;100.00
71424;BME280;59240;51.370;-0.486;2023-04-21T12:10:37;101062.56;;;9.37;100.00
71424;BME280;59240;51.370;-0.486;2023-04-21T12:13:39;101055.31;;;9.60;100.00
71424;BME280;59240;51.370;-0.486;2023-04-21T12:16:08;101055.75;;;9.92;100.00
71424;BME280;59240;51.370;-0.486;2023-04-21T12:18:41;101052.66;;;10.25;100.00
71424;BME280;59240;51.370;-0.486;2023-04-21T12:21:26;101057.44;;;10.51;100.00
71424;BME280;59240;51.370;-0.486;2023-04-21T12:24:47;101088.22;;;10.79;100.00
71424;BME280;59240;51.370;-0.486;2023-04-21T12:27:34;101087.31;;;10.80;100.00
71424;BME280;59240;51.370;-0.486;2023-04-21T12:30:01;101085.66;;;10.76;100.00
71424;BME280;59240;51.370;-0.486;2023-04-21T12:32:34;101071.13;;;10.64;100.00
71424;BME280;59240;51.370;-0.486;2023-04-21T12:35:38;101067.81;;;10.53;100.00
71424;BME280;59240;51.370;-0.486;2023-04-21T12:38:45;101067.22;;;10.37;100.00
71424;BME280;59240;51.370;-0.486;2023-04-21T12:42:13;101072.66;;;10.23;100.00
71424;BME280;59240;51.370;-0.486;2023-04-21T12:44:53;101062.31;;;10.15;100.00
71424;BME280;59240;51.370;-0.486;2023-04-21T12:47:20;101066.88;;;10.03;100.00
71424;BME280;59240;51.370;-0.486;2023-04-21T12:52:50;101051.56;;;9.80;100.00
71424;BME280;59240;51.370;-0.486;2023-04-21T12:55:34;101071.56;;;9.78;100.00
71424;BME280;59240;51.370;-0.486;2023-04-21T12:59:05;101062.97;;;9.71;100.00
71424;BME280;59240;51.370;-0.486;2023-04-21T13:01:57;101062.22;;;9.63;100.00
71424;BME280;59240;51.370;-0.486;2023-04-21T13:04:31;101070.75;;;9.73;100.00
71424;BME280;59240;51.370;-0.486;2023-04-21T13:07:00;101084.53;;;9.82;100.00
71424;BME280;59240;51.370;-0.486;2023-04-21T13:09:29;101070.78;;;9.71;100.00
71424;BME280;59240;51.370;-0.486;2023-04-21T13:11:58;101077.69;;;9.74;100.00
71424;BME280;59240;51.370;-0.486;2023-04-21T13:14:25;101070.78;;;9.71;100.00
71424;BME280;59240;51.370;-0.486;2023-04-21T13:16:57;101039.72;;;9.59;100.00
71424;BME280;59240;51.370;-0.486;2023-04-21T13:19:24;101058.53;;;9.79;100.00
71424;BME280;59240;51.370;-0.486;2023-04-21T13:21:51;101058.44;;;9.85;100.00